Mooreland, OK (73852)

10:26 AM CDT on March 29, 2017 (GMT -0500)
West Woodward | | Change Station

Elev 2188 ft 36.44 °N, 99.52 °W | Updated 11 minutes ago

Rain
Rain
45 °F
Feels Like 38 °F
N
15
Wind Variable Wind from NW
Gusts 21 mph

Today
High -- | Low -- °F
--% Chance of Precip.
Yesterday
High -- | Low -- °F
Precip. -- in
Pressure 29.76 in
Visibility 5.0 miles
Clouds Overcast 500 ft
Windchill 38 °F
Dew Point 43 °F
Humidity 93%
Rainfall 0.80 in
Snow Depth Not available.
7:26 AM 7:56 PM
Waxing Crescent, 3% visible
METAR KWWR 291515Z AUTO 32013G18KT 5SM RA OVC005 07/06 A2976 RMK AO2 P0005
Pressure 29.76 in
Visibility 5.0 miles
Clouds Overcast 500 ft
Windchill 38 °F
Dew Point 43 °F
Humidity 93%
Rainfall 0.80 in
Snow Depth Not available.
7:26 AM 7:56 PM
Waxing Crescent, 3% visible
METAR KWWR 291515Z AUTO 32013G18KT 5SM RA OVC005 07/06 A2976 RMK AO2 P0005

Get Severe Weather Alerts

Thanks for signing up!

Be on the lookout for a verification email in your inbox.

You'll start receiving the daily forecast at 8 AM.

×

10-Day Weather Forecast

Almanac

Astronomy

Mar. 29, 2017 Rise Set
Actual Time
Civil Twilight
Nautical Twilight
Astronomical Twilight
Moon
Length of Visible Light
Length of Day
Tomorrow will be .
, % of the Moon is Illuminated

Today's Extremes

State Highs State Lows

Community

WunderPhotos

Upload Photos

1,962,540 photos uploaded!

WunderBlog® & News

Nearby

Air Quality

  Air Quality AQ Index Pollutant
Not available.

Snow Depth

Station Depth Elevation

Earthquake Activity

City Distance Mag. Time & Date
Minimum magnitude displayed is 2.5.

Earthquake Activity

City Distance Mag. Time & Date
Minimum magnitude displayed is 2.5.

Coastal Water Temperatures

Place Temperature

Stations

Nearby Weather Stations

Station Location Temp. Windchill Dew Point Humidity Wind Precip. Elev Updated Type
                   

Watches & Warnings

There are currently no watches in effect.